createdAt,value
2023-02-19T00:00:07.207Z,9.5
2023-02-19T00:10:09.232Z,9.6
2023-02-19T00:20:11.485Z,9.7
2023-02-19T00:30:13.600Z,9.8
2023-02-19T00:40:15.578Z,9.8
2023-02-19T00:50:17.804Z,9.8
2023-02-19T01:00:20.610Z,9.8
2023-02-19T01:10:23.053Z,9.8
2023-02-19T01:20:25.736Z,9.8
2023-02-19T01:30:27.550Z,9.8
2023-02-19T01:40:29.604Z,9.8
2023-02-19T01:50:31.944Z,9.6
2023-02-19T02:00:34.540Z,9.5
2023-02-19T02:10:36.494Z,9.4
2023-02-19T02:20:38.740Z,9.3
2023-02-19T02:30:41.321Z,9.3
2023-02-19T02:40:43.296Z,9.3
2023-02-19T02:50:45.595Z,9.1
2023-02-19T03:30:54.713Z,9.2
2023-02-19T03:40:56.936Z,9.2
2023-02-19T05:11:16.121Z,8.8
2023-02-19T05:21:18.248Z,8.9
2023-02-19T05:41:22.897Z,8.8
2023-02-19T05:51:25.447Z,8.8
2023-02-19T06:01:27.753Z,8.7
2023-02-19T06:31:35.129Z,8.5
2023-02-19T06:41:37.496Z,8.5
2023-02-19T06:51:39.813Z,8.4
2023-02-19T07:11:44.805Z,8.5
2023-02-19T07:31:48.966Z,8.6
2023-02-19T07:41:51.578Z,8.6
2023-02-19T07:51:54.053Z,8.5
2023-02-19T08:01:55.732Z,8.4
2023-02-19T08:11:57.520Z,8.4
2023-02-19T08:21:59.970Z,8.5
2023-02-19T08:32:01.929Z,8.5
2023-02-19T08:42:04.316Z,8.6
2023-02-19T08:52:06.783Z,8.5
2023-02-19T09:02:09.136Z,8.5
2023-02-19T09:12:11.577Z,8.5
2023-02-19T09:22:13.775Z,8.6
2023-02-19T09:32:18.049Z,8.7
2023-02-19T09:42:18.523Z,8.7
2023-02-19T09:52:21.173Z,8.7
2023-02-19T10:22:27.568Z,8.8
2023-02-19T10:32:30.392Z,8.7
2023-02-19T10:42:32.576Z,6.8
2023-02-19T11:12:39.339Z,6.7
2023-02-19T11:32:44.097Z,6.4
2023-02-19T11:52:47.854Z,6.4
2023-02-19T12:12:52.157Z,6.8
2023-02-19T12:22:54.004Z,6.6
2023-02-19T12:32:56.598Z,6.7
2023-02-19T12:42:58.581Z,6.5
2023-02-19T12:53:00.687Z,6.9
2023-02-19T13:03:03.158Z,6.9
2023-02-19T13:13:05.326Z,6.9
2023-02-19T13:23:07.367Z,6.9
2023-02-19T13:43:11.989Z,6.8
2023-02-19T13:53:13.869Z,6.9
2023-02-19T14:03:16.120Z,7.1
2023-02-19T14:13:18.283Z,6.9
2023-02-19T14:23:20.571Z,7.1
2023-02-19T14:33:22.592Z,6.9
2023-02-19T14:43:24.353Z,7
2023-02-19T14:53:26.979Z,7
2023-02-19T15:03:28.800Z,7
2023-02-19T15:13:31.288Z,7.1
2023-02-19T15:23:33.413Z,6.9
2023-02-19T15:33:35.494Z,7
2023-02-19T15:43:37.594Z,7.2
2023-02-19T15:53:39.483Z,7.4
2023-02-19T16:03:41.194Z,7.5
2023-02-19T16:13:43.409Z,7.6
2023-02-19T16:23:45.453Z,7.7
2023-02-19T16:33:48.486Z,7.7
2023-02-19T16:43:49.721Z,7.8
2023-02-19T16:53:52.175Z,7.8
2023-02-19T17:03:54.508Z,7.8
2023-02-19T17:13:56.486Z,7.6
2023-02-19T17:23:59.071Z,7.3
2023-02-19T17:34:01.341Z,7.3
2023-02-19T17:44:04.014Z,7.3
2023-02-19T17:54:08.323Z,7.2
2023-02-19T18:04:08.858Z,7.1
2023-02-19T18:14:11.337Z,6.7
2023-02-19T18:24:13.170Z,6.4
2023-02-19T18:34:15.735Z,6.3
2023-02-19T18:44:18.119Z,6.2
2023-02-19T18:54:20.797Z,6.1
2023-02-19T19:04:22.493Z,6.2
2023-02-19T19:14:24.963Z,6.1
2023-02-19T19:24:27.055Z,6
2023-02-19T19:34:28.821Z,6
2023-02-19T19:44:31.053Z,5.9
2023-02-19T19:54:33.733Z,6
2023-02-19T20:04:35.798Z,6
2023-02-19T20:14:37.487Z,5.9
2023-02-19T20:24:39.259Z,5.9
2023-02-19T20:34:41.528Z,5.9
2023-02-19T20:44:43.490Z,5.9
2023-02-19T20:54:45.585Z,5.9
2023-02-19T21:04:47.387Z,5.8
2023-02-19T21:14:49.147Z,5.8
2023-02-19T21:24:51.323Z,5.7
2023-02-19T21:34:53.943Z,5.8
2023-02-19T21:44:55.805Z,5.8
2023-02-19T21:54:58.248Z,5.8
2023-02-19T22:15:01.760Z,5.9
2023-02-19T22:25:04.202Z,5.9
2023-02-19T22:35:06.215Z,5.9
2023-02-19T22:45:08.293Z,5.8
2023-02-19T22:55:10.419Z,5.8
2023-02-19T23:05:12.650Z,5.6
2023-02-19T23:08:07.161Z,5.6
2023-02-19T23:15:24.263Z,5.5
2023-02-19T23:25:26.914Z,5.5
2023-02-19T23:35:28.985Z,5.4
2023-02-19T23:45:31.081Z,5.4
2023-02-19T23:55:33.211Z,5.3
